sensor_id;sensor_type;location;lat;lon;timestamp;pressure;altitude;pressure_sealevel;temperature;humidity
38616;BME280;24370;51.986;4.666;2023-09-07T00:01:29;101998.50;;;30.27;41.42
38616;BME280;24370;51.986;4.666;2023-09-07T00:03:55;101990.97;;;30.19;41.79
38616;BME280;24370;51.986;4.666;2023-09-07T00:06:20;101988.91;;;30.47;41.00
38616;BME280;24370;51.986;4.666;2023-09-07T00:08:46;101992.22;;;30.26;41.72
38616;BME280;24370;51.986;4.666;2023-09-07T00:11:11;101985.06;;;30.14;41.81
38616;BME280;24370;51.986;4.666;2023-09-07T00:13:36;101982.22;;;30.40;41.80
38616;BME280;24370;51.986;4.666;2023-09-07T00:16:03;101987.03;;;30.12;42.33
38616;BME280;24370;51.986;4.666;2023-09-07T00:18:29;101981.69;;;30.23;41.20
38616;BME280;24370;51.986;4.666;2023-09-07T00:20:55;101986.72;;;30.52;40.95
38616;BME280;24370;51.986;4.666;2023-09-07T00:23:21;101978.22;;;29.86;42.02
38616;BME280;24370;51.986;4.666;2023-09-07T00:25:47;101980.09;;;30.32;41.09
38616;BME280;24370;51.986;4.666;2023-09-07T00:28:12;101986.34;;;29.97;42.09
38616;BME280;24370;51.986;4.666;2023-09-07T00:30:38;101978.25;;;30.21;41.61
38616;BME280;24370;51.986;4.666;2023-09-07T00:33:04;101986.84;;;30.26;41.19
38616;BME280;24370;51.986;4.666;2023-09-07T00:35:30;101984.34;;;30.12;41.37
38616;BME280;24370;51.986;4.666;2023-09-07T00:37:55;101988.25;;;30.08;42.15
38616;BME280;24370;51.986;4.666;2023-09-07T00:40:22;101980.19;;;30.19;42.05
38616;BME280;24370;51.986;4.666;2023-09-07T00:42:47;101977.22;;;30.11;41.67
38616;BME280;24370;51.986;4.666;2023-09-07T00:45:13;101982.16;;;29.93;41.89
38616;BME280;24370;51.986;4.666;2023-09-07T00:47:38;101984.28;;;29.64;42.49
38616;BME280;24370;51.986;4.666;2023-09-07T00:50:04;101977.34;;;29.85;42.25
38616;BME280;24370;51.986;4.666;2023-09-07T00:52:31;101980.59;;;29.77;42.78
38616;BME280;24370;51.986;4.666;2023-09-07T00:54:57;101982.53;;;29.25;43.46
38616;BME280;24370;51.986;4.666;2023-09-07T00:57:24;101976.34;;;29.49;43.06
38616;BME280;24370;51.986;4.666;2023-09-07T00:59:50;101978.91;;;29.64;43.38
38616;BME280;24370;51.986;4.666;2023-09-07T01:02:15;101972.22;;;29.56;43.27
38616;BME280;24370;51.986;4.666;2023-09-07T01:04:40;101973.00;;;29.58;42.91
38616;BME280;24370;51.986;4.666;2023-09-07T01:07:17;101965.16;;;29.42;43.50
38616;BME280;24370;51.986;4.666;2023-09-07T01:09:43;101959.88;;;29.41;43.20
38616;BME280;24370;51.986;4.666;2023-09-07T01:12:16;101965.63;;;29.36;43.60
38616;BME280;24370;51.986;4.666;2023-09-07T01:14:42;101967.22;;;29.76;42.53
38616;BME280;24370;51.986;4.666;2023-09-07T01:17:09;101966.03;;;29.80;42.14
38616;BME280;24370;51.986;4.666;2023-09-07T01:19:34;101961.75;;;29.65;42.61
38616;BME280;24370;51.986;4.666;2023-09-07T01:22:00;101976.09;;;29.65;42.79
38616;BME280;24370;51.986;4.666;2023-09-07T01:24:27;101970.91;;;29.62;42.73
38616;BME280;24370;51.986;4.666;2023-09-07T01:26:56;101967.13;;;29.27;43.28
38616;BME280;24370;51.986;4.666;2023-09-07T01:29:22;101965.44;;;29.26;43.70
38616;BME280;24370;51.986;4.666;2023-09-07T01:31:47;101964.84;;;29.21;43.30
38616;BME280;24370;51.986;4.666;2023-09-07T01:34:13;101965.50;;;29.12;43.83
38616;BME280;24370;51.986;4.666;2023-09-07T01:36:40;101954.50;;;29.15;43.56
38616;BME280;24370;51.986;4.666;2023-09-07T01:39:06;101954.66;;;29.01;44.18
38616;BME280;24370;51.986;4.666;2023-09-07T01:41:31;101956.38;;;29.02;44.24
38616;BME280;24370;51.986;4.666;2023-09-07T01:43:58;101948.38;;;29.39;43.43
38616;BME280;24370;51.986;4.666;2023-09-07T01:46:24;101955.50;;;29.27;43.40
38616;BME280;24370;51.986;4.666;2023-09-07T01:48:49;101960.88;;;29.14;43.48
38616;BME280;24370;51.986;4.666;2023-09-07T01:51:14;101956.25;;;29.16;43.66
38616;BME280;24370;51.986;4.666;2023-09-07T01:53:40;101950.38;;;28.85;44.30
38616;BME280;24370;51.986;4.666;2023-09-07T01:56:05;101956.47;;;29.00;43.96
38616;BME280;24370;51.986;4.666;2023-09-07T01:58:31;101956.06;;;28.68;44.60
38616;BME280;24370;51.986;4.666;2023-09-07T02:00:57;101959.81;;;28.78;44.57
38616;BME280;24370;51.986;4.666;2023-09-07T02:03:23;101955.06;;;28.94;44.64
38616;BME280;24370;51.986;4.666;2023-09-07T02:05:48;101946.66;;;29.12;44.10
38616;BME280;24370;51.986;4.666;2023-09-07T02:08:14;101958.28;;;29.13;44.00
38616;BME280;24370;51.986;4.666;2023-09-07T02:10:39;101961.97;;;28.99;43.61
38616;BME280;24370;51.986;4.666;2023-09-07T02:13:05;101955.75;;;28.85;44.18
38616;BME280;24370;51.986;4.666;2023-09-07T02:15:30;101963.81;;;28.85;44.41
38616;BME280;24370;51.986;4.666;2023-09-07T02:17:56;101968.13;;;28.35;45.21
38616;BME280;24370;51.986;4.666;2023-09-07T02:20:22;101960.47;;;28.82;44.47
38616;BME280;24370;51.986;4.666;2023-09-07T02:22:47;101964.56;;;28.74;44.75
38616;BME280;24370;51.986;4.666;2023-09-07T02:25:12;101962.72;;;28.75;44.70
38616;BME280;24370;51.986;4.666;2023-09-07T02:27:38;101964.75;;;28.71;45.07
38616;BME280;24370;51.986;4.666;2023-09-07T02:30:04;101961.53;;;28.79;44.43
38616;BME280;24370;51.986;4.666;2023-09-07T02:32:31;101963.03;;;28.83;44.30
38616;BME280;24370;51.986;4.666;2023-09-07T02:34:57;101956.59;;;28.86;44.80
38616;BME280;24370;51.986;4.666;2023-09-07T02:37:22;101958.97;;;28.65;45.04
38616;BME280;24370;51.986;4.666;2023-09-07T02:39:48;101951.41;;;28.70;44.95
38616;BME280;24370;51.986;4.666;2023-09-07T02:42:14;101947.91;;;28.55;44.98
38616;BME280;24370;51.986;4.666;2023-09-07T02:44:39;101967.06;;;28.50;45.22
38616;BME280;24370;51.986;4.666;2023-09-07T02:47:04;101958.88;;;28.39;45.21
38616;BME280;24370;51.986;4.666;2023-09-07T02:49:30;101957.16;;;28.38;45.85
38616;BME280;24370;51.986;4.666;2023-09-07T02:51:56;101963.91;;;28.31;45.54
38616;BME280;24370;51.986;4.666;2023-09-07T02:54:22;101971.56;;;27.82;46.39
38616;BME280;24370;51.986;4.666;2023-09-07T02:56:48;101969.19;;;28.32;45.87
38616;BME280;24370;51.986;4.666;2023-09-07T02:59:14;101963.59;;;28.22;45.57
38616;BME280;24370;51.986;4.666;2023-09-07T03:01:39;101966.63;;;28.43;45.51
38616;BME280;24370;51.986;4.666;2023-09-07T03:04:05;101972.38;;;28.24;45.54
38616;BME280;24370;51.986;4.666;2023-09-07T03:06:31;101964.06;;;28.55;45.19
38616;BME280;24370;51.986;4.666;2023-09-07T03:08:56;101969.88;;;28.49;45.26
38616;BME280;24370;51.986;4.666;2023-09-07T03:11:22;101960.97;;;28.61;44.63
38616;BME280;24370;51.986;4.666;2023-09-07T03:13:48;101961.88;;;28.34;45.17
38616;BME280;24370;51.986;4.666;2023-09-07T03:16:13;101966.53;;;28.45;45.22
38616;BME280;24370;51.986;4.666;2023-09-07T03:18:38;101964.91;;;28.42;45.61
38616;BME280;24370;51.986;4.666;2023-09-07T03:21:04;101966.00;;;28.40;45.16
38616;BME280;24370;51.986;4.666;2023-09-07T03:23:31;101968.66;;;28.00;46.29
38616;BME280;24370;51.986;4.666;2023-09-07T03:25:57;101970.34;;;28.15;45.74
38616;BME280;24370;51.986;4.666;2023-09-07T03:28:23;101963.44;;;28.11;46.21
38616;BME280;24370;51.986;4.666;2023-09-07T03:30:50;101962.88;;;28.06;45.79
38616;BME280;24370;51.986;4.666;2023-09-07T03:33:16;101953.72;;;27.81;46.69
38616;BME280;24370;51.986;4.666;2023-09-07T03:35:41;101963.16;;;27.74;46.85
38616;BME280;24370;51.986;4.666;2023-09-07T03:38:06;101966.75;;;27.87;46.63
38616;BME280;24370;51.986;4.666;2023-09-07T03:40:32;101962.66;;;28.09;46.29
38616;BME280;24370;51.986;4.666;2023-09-07T03:42:57;101964.47;;;27.81;46.71
38616;BME280;24370;51.986;4.666;2023-09-07T03:45:23;101974.97;;;27.71;46.50
38616;BME280;24370;51.986;4.666;2023-09-07T03:47:48;101959.81;;;27.98;46.20
38616;BME280;24370;51.986;4.666;2023-09-07T03:50:14;101957.50;;;27.91;46.15
38616;BME280;24370;51.986;4.666;2023-09-07T03:52:40;101959.16;;;27.94;46.49
38616;BME280;24370;51.986;4.666;2023-09-07T03:55:06;101956.44;;;27.67;47.12
38616;BME280;24370;51.986;4.666;2023-09-07T03:57:31;101961.28;;;27.47;47.33
38616;BME280;24370;51.986;4.666;2023-09-07T03:59:57;101961.72;;;27.96;46.46
38616;BME280;24370;51.986;4.666;2023-09-07T04:02:23;101961.16;;;27.63;47.00
38616;BME280;24370;51.986;4.666;2023-09-07T04:04:52;101962.06;;;27.76;46.82
38616;BME280;24370;51.986;4.666;2023-09-07T04:07:18;101968.13;;;27.80;46.58
38616;BME280;24370;51.986;4.666;2023-09-07T04:09:44;101957.03;;;27.99;46.09
38616;BME280;24370;51.986;4.666;2023-09-07T04:12:10;101961.63;;;28.24;45.85
38616;BME280;24370;51.986;4.666;2023-09-07T04:14:36;101967.44;;;28.18;45.84
38616;BME280;24370;51.986;4.666;2023-09-07T04:17:03;101966.53;;;28.05;46.31
38616;BME280;24370;51.986;4.666;2023-09-07T04:19:28;101965.97;;;28.00;46.25
38616;BME280;24370;51.986;4.666;2023-09-07T04:21:53;101972.44;;;27.41;47.13
38616;BME280;24370;51.986;4.666;2023-09-07T04:24:19;101978.84;;;27.80;46.63
38616;BME280;24370;51.986;4.666;2023-09-07T04:26:44;101970.66;;;27.69;46.31
38616;BME280;24370;51.986;4.666;2023-09-07T04:29:11;101974.44;;;27.79;46.16
38616;BME280;24370;51.986;4.666;2023-09-07T04:31:38;101968.53;;;27.74;46.72
38616;BME280;24370;51.986;4.666;2023-09-07T04:34:03;101970.66;;;27.69;46.90
38616;BME280;24370;51.986;4.666;2023-09-07T04:36:29;101975.06;;;27.55;47.10
38616;BME280;24370;51.986;4.666;2023-09-07T04:38:54;101978.72;;;27.54;46.96
38616;BME280;24370;51.986;4.666;2023-09-07T04:41:20;101977.19;;;27.50;47.42
38616;BME280;24370;51.986;4.666;2023-09-07T04:43:45;101983.13;;;27.26;47.19
38616;BME280;24370;51.986;4.666;2023-09-07T04:46:14;101981.97;;;27.59;46.96
38616;BME280;24370;51.986;4.666;2023-09-07T04:48:40;101984.69;;;27.45;47.02
38616;BME280;24370;51.986;4.666;2023-09-07T04:51:07;101988.22;;;27.46;47.56
38616;BME280;24370;51.986;4.666;2023-09-07T04:53:34;101980.44;;;27.55;47.04
38616;BME280;24370;51.986;4.666;2023-09-07T04:56:01;101980.25;;;27.30;47.58
38616;BME280;24370;51.986;4.666;2023-09-07T04:58:27;101981.97;;;27.02;48.04
38616;BME280;24370;51.986;4.666;2023-09-07T05:00:52;101977.00;;;27.24;47.46
38616;BME280;24370;51.986;4.666;2023-09-07T05:03:18;101978.34;;;27.32;47.74
38616;BME280;24370;51.986;4.666;2023-09-07T05:05:44;101980.81;;;27.06;47.97
38616;BME280;24370;51.986;4.666;2023-09-07T05:08:11;101982.19;;;27.42;47.45
38616;BME280;24370;51.986;4.666;2023-09-07T05:10:37;101982.75;;;27.18;47.84
38616;BME280;24370;51.986;4.666;2023-09-07T05:13:03;101991.56;;;26.91;48.20
38616;BME280;24370;51.986;4.666;2023-09-07T05:15:29;101991.16;;;26.98;47.92
38616;BME280;24370;51.986;4.666;2023-09-07T05:17:54;101990.81;;;27.04;48.13
38616;BME280;24370;51.986;4.666;2023-09-07T05:20:20;101995.38;;;27.02;47.72
38616;BME280;24370;51.986;4.666;2023-09-07T05:22:46;101993.97;;;27.25;47.30
38616;BME280;24370;51.986;4.666;2023-09-07T05:25:12;102000.38;;;27.22;47.58
38616;BME280;24370;51.986;4.666;2023-09-07T05:27:38;101999.31;;;27.11;47.68
38616;BME280;24370;51.986;4.666;2023-09-07T05:30:04;101992.50;;;27.34;47.31
38616;BME280;24370;51.986;4.666;2023-09-07T05:32:31;102002.97;;;27.24;47.36
38616;BME280;24370;51.986;4.666;2023-09-07T05:34:56;101995.06;;;27.37;46.73
38616;BME280;24370;51.986;4.666;2023-09-07T05:37:21;101996.19;;;27.33;47.46
38616;BME280;24370;51.986;4.666;2023-09-07T05:39:47;101994.97;;;27.38;46.93
38616;BME280;24370;51.986;4.666;2023-09-07T05:42:14;101999.25;;;27.12;47.46
38616;BME280;24370;51.986;4.666;2023-09-07T05:44:39;101990.31;;;27.26;47.55
38616;BME280;24370;51.986;4.666;2023-09-07T05:47:05;101990.56;;;26.78;48.41
38616;BME280;24370;51.986;4.666;2023-09-07T05:49:30;101996.19;;;27.04;47.78
38616;BME280;24370;51.986;4.666;2023-09-07T05:51:56;101997.50;;;27.25;47.36
38616;BME280;24370;51.986;4.666;2023-09-07T05:54:22;101988.28;;;26.86;48.33
38616;BME280;24370;51.986;4.666;2023-09-07T05:56:47;102000.56;;;27.34;46.94
38616;BME280;24370;51.986;4.666;2023-09-07T05:59:13;101998.47;;;27.24;47.34
38616;BME280;24370;51.986;4.666;2023-09-07T06:01:39;102010.75;;;27.57;47.04
38616;BME280;24370;51.986;4.666;2023-09-07T06:04:05;102011.50;;;27.59;46.45
38616;BME280;24370;51.986;4.666;2023-09-07T06:06:31;102013.22;;;27.17;47.58
38616;BME280;24370;51.986;4.666;2023-09-07T06:08:56;102011.88;;;27.68;46.39
38616;BME280;24370;51.986;4.666;2023-09-07T06:11:24;102016.25;;;27.83;46.19
38616;BME280;24370;51.986;4.666;2023-09-07T06:13:49;102013.88;;;27.79;46.40
38616;BME280;24370;51.986;4.666;2023-09-07T06:16:15;102012.09;;;27.65;46.79
38616;BME280;24370;51.986;4.666;2023-09-07T06:18:40;102024.69;;;27.91;46.06
38616;BME280;24370;51.986;4.666;2023-09-07T06:21:06;102026.03;;;27.99;45.96
38616;BME280;24370;51.986;4.666;2023-09-07T06:23:31;102026.34;;;27.80;46.69
38616;BME280;24370;51.986;4.666;2023-09-07T06:25:57;102021.09;;;27.64;46.92
38616;BME280;24370;51.986;4.666;2023-09-07T06:28:22;102028.72;;;27.84;46.23
38616;BME280;24370;51.986;4.666;2023-09-07T06:30:48;102026.03;;;27.99;46.12
38616;BME280;24370;51.986;4.666;2023-09-07T06:33:13;102032.66;;;28.07;46.24
38616;BME280;24370;51.986;4.666;2023-09-07T06:35:39;102035.88;;;27.56;47.38
38616;BME280;24370;51.986;4.666;2023-09-07T06:38:04;102037.44;;;28.02;46.21
38616;BME280;24370;51.986;4.666;2023-09-07T06:40:30;102038.69;;;28.11;46.35
38616;BME280;24370;51.986;4.666;2023-09-07T06:42:55;102037.94;;;27.95;46.83
38616;BME280;24370;51.986;4.666;2023-09-07T06:45:22;102031.25;;;27.73;47.62
38616;BME280;24370;51.986;4.666;2023-09-07T06:47:49;102027.66;;;28.29;45.98
38616;BME280;24370;51.986;4.666;2023-09-07T06:50:15;102020.19;;;28.47;45.88
38616;BME280;24370;51.986;4.666;2023-09-07T06:52:41;102016.75;;;28.44;45.62
38616;BME280;24370;51.986;4.666;2023-09-07T06:55:06;102020.66;;;27.99;47.14
38616;BME280;24370;51.986;4.666;2023-09-07T06:57:32;102039.22;;;28.16;46.85
38616;BME280;24370;51.986;4.666;2023-09-07T07:00:08;102034.28;;;28.10;46.64
38616;BME280;24370;51.986;4.666;2023-09-07T07:02:34;102028.03;;;28.77;45.72
38616;BME280;24370;51.986;4.666;2023-09-07T07:05:00;102026.09;;;28.79;45.22
38616;BME280;24370;51.986;4.666;2023-09-07T07:07:25;102034.84;;;28.55;45.62
38616;BME280;24370;51.986;4.666;2023-09-07T07:09:51;102037.41;;;28.44;45.77
38616;BME280;24370;51.986;4.666;2023-09-07T07:12:17;102036.19;;;28.75;45.34
38616;BME280;24370;51.986;4.666;2023-09-07T07:14:43;102034.28;;;29.16;44.92
38616;BME280;24370;51.986;4.666;2023-09-07T07:17:09;102028.22;;;28.74;45.68
38616;BME280;24370;51.986;4.666;2023-09-07T07:19:34;102028.81;;;29.05;44.73
38616;BME280;24370;51.986;4.666;2023-09-07T07:22:00;102032.69;;;29.01;44.95
38616;BME280;24370;51.986;4.666;2023-09-07T07:24:25;102033.25;;;29.06;45.25
38616;BME280;24370;51.986;4.666;2023-09-07T07:26:51;102035.16;;;29.55;44.06
38616;BME280;24370;51.986;4.666;2023-09-07T07:29:16;102034.47;;;31.67;42.21
38616;BME280;24370;51.986;4.666;2023-09-07T07:31:41;102028.09;;;32.97;38.18
38616;BME280;24370;51.986;4.666;2023-09-07T07:34:07;102028.22;;;35.14;35.00
38616;BME280;24370;51.986;4.666;2023-09-07T07:36:32;102027.81;;;36.03;32.35
38616;BME280;24370;51.986;4.666;2023-09-07T07:38:58;102028.78;;;37.00;31.24
38616;BME280;24370;51.986;4.666;2023-09-07T07:41:23;102025.09;;;37.44;30.41
38616;BME280;24370;51.986;4.666;2023-09-07T07:43:48;102028.16;;;37.92;28.78
38616;BME280;24370;51.986;4.666;2023-09-07T07:46:14;102026.28;;;38.99;27.99
38616;BME280;24370;51.986;4.666;2023-09-07T07:48:43;102018.81;;;39.73;27.07
38616;BME280;24370;51.986;4.666;2023-09-07T07:51:09;102021.06;;;39.29;26.56
38616;BME280;24370;51.986;4.666;2023-09-07T07:53:34;102020.44;;;39.50;27.75
38616;BME280;24370;51.986;4.666;2023-09-07T07:56:00;102018.97;;;39.40;26.82
38616;BME280;24370;51.986;4.666;2023-09-07T07:58:26;102017.84;;;40.12;25.90
38616;BME280;24370;51.986;4.666;2023-09-07T08:00:51;102019.34;;;39.68;28.24
38616;BME280;24370;51.986;4.666;2023-09-07T08:03:17;102014.88;;;39.98;25.67
38616;BME280;24370;51.986;4.666;2023-09-07T08:05:42;102024.97;;;40.21;26.32
38616;BME280;24370;51.986;4.666;2023-09-07T08:08:08;102021.44;;;39.89;26.30
38616;BME280;24370;51.986;4.666;2023-09-07T08:10:34;102017.53;;;39.60;25.73
38616;BME280;24370;51.986;4.666;2023-09-07T08:13:01;102009.50;;;39.19;26.54
38616;BME280;24370;51.986;4.666;2023-09-07T08:15:28;102012.63;;;36.54;29.95
38616;BME280;24370;51.986;4.666;2023-09-07T08:17:53;102005.97;;;37.35;29.21
38616;BME280;24370;51.986;4.666;2023-09-07T08:20:19;102000.59;;;36.83;30.65
38616;BME280;24370;51.986;4.666;2023-09-07T08:22:44;102012.91;;;35.79;32.04
38616;BME280;24370;51.986;4.666;2023-09-07T08:25:12;102002.84;;;36.25;31.08
38616;BME280;24370;51.986;4.666;2023-09-07T08:27:44;102004.75;;;36.07;30.82
38616;BME280;24370;51.986;4.666;2023-09-07T08:30:15;102009.69;;;35.93;31.76
38616;BME280;24370;51.986;4.666;2023-09-07T08:32:41;101989.56;;;36.66;30.47
38616;BME280;24370;51.986;4.666;2023-09-07T08:35:09;101990.09;;;36.88;30.77
38616;BME280;24370;51.986;4.666;2023-09-07T08:37:38;102003.91;;;36.95;29.53
38616;BME280;24370;51.986;4.666;2023-09-07T08:40:03;101991.25;;;37.63;29.38
38616;BME280;24370;51.986;4.666;2023-09-07T08:42:30;101992.69;;;36.72;30.01
38616;BME280;24370;51.986;4.666;2023-09-07T08:44:56;101989.63;;;37.35;29.21
38616;BME280;24370;51.986;4.666;2023-09-07T08:47:25;101989.53;;;37.70;27.99
38616;BME280;24370;51.986;4.666;2023-09-07T08:49:53;101988.78;;;37.35;29.46
38616;BME280;24370;51.986;4.666;2023-09-07T08:52:19;101989.78;;;38.59;27.38
38616;BME280;24370;51.986;4.666;2023-09-07T08:54:48;101986.47;;;37.14;29.82
38616;BME280;24370;51.986;4.666;2023-09-07T08:57:14;101983.69;;;36.79;29.57
38616;BME280;24370;51.986;4.666;2023-09-07T08:59:39;101988.22;;;36.44;30.34
38616;BME280;24370;51.986;4.666;2023-09-07T09:02:11;101989.50;;;36.14;30.82
38616;BME280;24370;51.986;4.666;2023-09-07T09:04:36;101983.78;;;36.70;30.31
38616;BME280;24370;51.986;4.666;2023-09-07T09:07:02;101982.16;;;37.03;29.70
38616;BME280;24370;51.986;4.666;2023-09-07T09:09:29;101991.50;;;36.48;30.41
38616;BME280;24370;51.986;4.666;2023-09-07T09:11:54;101987.16;;;36.19;30.55
38616;BME280;24370;51.986;4.666;2023-09-07T09:14:20;101991.41;;;36.58;30.14
38616;BME280;24370;51.986;4.666;2023-09-07T09:16:51;101981.88;;;36.80;28.81
38616;BME280;24370;51.986;4.666;2023-09-07T09:19:17;101988.63;;;36.13;30.02
38616;BME280;24370;51.986;4.666;2023-09-07T09:21:44;101987.22;;;36.27;30.92
38616;BME280;24370;51.986;4.666;2023-09-07T09:24:11;101986.78;;;36.58;30.11
38616;BME280;24370;51.986;4.666;2023-09-07T09:26:40;101987.38;;;36.08;30.56
38616;BME280;24370;51.986;4.666;2023-09-07T09:29:05;101984.66;;;36.44;29.72
38616;BME280;24370;51.986;4.666;2023-09-07T09:31:31;101988.56;;;36.23;29.99
38616;BME280;24370;51.986;4.666;2023-09-07T09:33:56;101988.63;;;36.76;29.19
38616;BME280;24370;51.986;4.666;2023-09-07T09:36:22;101987.75;;;36.49;30.02
38616;BME280;24370;51.986;4.666;2023-09-07T09:38:49;101994.41;;;36.73;29.03
38616;BME280;24370;51.986;4.666;2023-09-07T09:41:16;101993.69;;;36.71;29.23
38616;BME280;24370;51.986;4.666;2023-09-07T09:43:43;101987.06;;;37.93;27.65
38616;BME280;24370;51.986;4.666;2023-09-07T09:46:09;101982.91;;;37.64;28.77
38616;BME280;24370;51.986;4.666;2023-09-07T09:48:36;101980.75;;;38.59;26.89
38616;BME280;24370;51.986;4.666;2023-09-07T09:51:03;101981.94;;;38.56;27.88
38616;BME280;24370;51.986;4.666;2023-09-07T09:53:30;101986.75;;;37.96;27.52
38616;BME280;24370;51.986;4.666;2023-09-07T09:55:56;101979.09;;;37.41;28.29
38616;BME280;24370;51.986;4.666;2023-09-07T09:58:21;101984.03;;;38.38;27.43
38616;BME280;24370;51.986;4.666;2023-09-07T10:00:50;101982.41;;;37.18;28.78
38616;BME280;24370;51.986;4.666;2023-09-07T10:03:25;101975.88;;;37.54;28.89
38616;BME280;24370;51.986;4.666;2023-09-07T10:05:53;101982.97;;;36.43;30.00
38616;BME280;24370;51.986;4.666;2023-09-07T10:08:20;101979.13;;;36.17;30.40
38616;BME280;24370;51.986;4.666;2023-09-07T10:10:49;101972.16;;;37.12;29.51
38616;BME280;24370;51.986;4.666;2023-09-07T10:13:31;101974.88;;;36.15;30.04
38616;BME280;24370;51.986;4.666;2023-09-07T10:16:08;101974.91;;;35.69;30.51
38616;BME280;24370;51.986;4.666;2023-09-07T10:18:35;101963.84;;;36.34;29.78
38616;BME280;24370;51.986;4.666;2023-09-07T10:21:01;101962.56;;;35.75;30.82
38616;BME280;24370;51.986;4.666;2023-09-07T10:23:41;101968.94;;;35.65;30.94
38616;BME280;24370;51.986;4.666;2023-09-07T10:26:15;101963.00;;;36.60;29.30
38616;BME280;24370;51.986;4.666;2023-09-07T10:28:41;101965.03;;;36.58;29.36
38616;BME280;24370;51.986;4.666;2023-09-07T10:33:39;101962.00;;;36.70;30.10
38616;BME280;24370;51.986;4.666;2023-09-07T10:36:05;101961.53;;;36.30;30.00
38616;BME280;24370;51.986;4.666;2023-09-07T10:38:36;101962.63;;;36.55;29.76
38616;BME280;24370;51.986;4.666;2023-09-07T10:41:05;101955.34;;;36.38;29.15
38616;BME280;24370;51.986;4.666;2023-09-07T10:43:32;101954.34;;;36.91;29.13
38616;BME280;24370;51.986;4.666;2023-09-07T10:45:58;101958.50;;;36.77;29.38
38616;BME280;24370;51.986;4.666;2023-09-07T10:48:24;101949.34;;;36.52;29.21
38616;BME280;24370;51.986;4.666;2023-09-07T10:50:51;101946.88;;;36.41;29.44
38616;BME280;24370;51.986;4.666;2023-09-07T10:53:28;101961.50;;;36.04;29.21
38616;BME280;24370;51.986;4.666;2023-09-07T10:55:56;101945.03;;;36.76;28.91
38616;BME280;24370;51.986;4.666;2023-09-07T10:58:32;101944.13;;;36.67;28.19
38616;BME280;24370;51.986;4.666;2023-09-07T11:00:59;101949.41;;;36.60;28.44
38616;BME280;24370;51.986;4.666;2023-09-07T11:03:25;101946.09;;;36.30;28.84
38616;BME280;24370;51.986;4.666;2023-09-07T11:05:54;101940.34;;;36.86;28.40
38616;BME280;24370;51.986;4.666;2023-09-07T11:08:22;101941.75;;;36.64;28.30
38616;BME280;24370;51.986;4.666;2023-09-07T11:10:50;101943.75;;;36.80;28.35
38616;BME280;24370;51.986;4.666;2023-09-07T11:13:16;101944.34;;;37.34;27.14
38616;BME280;24370;51.986;4.666;2023-09-07T11:15:42;101938.94;;;36.29;28.26
38616;BME280;24370;51.986;4.666;2023-09-07T11:18:08;101940.34;;;36.86;28.02
38616;BME280;24370;51.986;4.666;2023-09-07T11:20:37;101935.22;;;37.26;27.77
38616;BME280;24370;51.986;4.666;2023-09-07T11:23:05;101932.69;;;36.81;28.50
38616;BME280;24370;51.986;4.666;2023-09-07T11:25:37;101937.09;;;36.12;29.12
38616;BME280;24370;51.986;4.666;2023-09-07T11:28:06;101926.28;;;36.64;28.57
38616;BME280;24370;51.986;4.666;2023-09-07T11:30:35;101922.69;;;36.98;28.41
38616;BME280;24370;51.986;4.666;2023-09-07T11:33:09;101918.78;;;36.66;28.90
38616;BME280;24370;51.986;4.666;2023-09-07T11:35:35;101921.59;;;37.26;27.99
38616;BME280;24370;51.986;4.666;2023-09-07T11:38:02;101924.78;;;37.05;28.75
38616;BME280;24370;51.986;4.666;2023-09-07T11:40:29;101913.84;;;36.96;28.97
38616;BME280;24370;51.986;4.666;2023-09-07T11:42:55;101921.59;;;37.77;27.44
38616;BME280;24370;51.986;4.666;2023-09-07T11:45:20;101914.75;;;38.06;26.86
38616;BME280;24370;51.986;4.666;2023-09-07T11:47:45;101912.00;;;38.47;27.11
38616;BME280;24370;51.986;4.666;2023-09-07T11:50:11;101909.13;;;37.82;27.58
38616;BME280;24370;51.986;4.666;2023-09-07T11:52:36;101919.47;;;37.46;27.52
38616;BME280;24370;51.986;4.666;2023-09-07T11:55:02;101908.81;;;38.02;27.86
38616;BME280;24370;51.986;4.666;2023-09-07T11:57:29;101908.47;;;37.80;27.09
38616;BME280;24370;51.986;4.666;2023-09-07T11:59:54;101907.59;;;37.72;27.49
38616;BME280;24370;51.986;4.666;2023-09-07T12:02:20;101902.50;;;38.01;27.62
38616;BME280;24370;51.986;4.666;2023-09-07T12:04:47;101899.72;;;38.43;25.76
38616;BME280;24370;51.986;4.666;2023-09-07T12:07:12;101895.06;;;39.39;25.39
38616;BME280;24370;51.986;4.666;2023-09-07T12:09:38;101897.50;;;39.80;25.16
38616;BME280;24370;51.986;4.666;2023-09-07T12:12:03;101886.09;;;39.77;24.61
38616;BME280;24370;51.986;4.666;2023-09-07T12:14:29;101883.16;;;39.32;24.98
38616;BME280;24370;51.986;4.666;2023-09-07T12:16:56;101883.97;;;39.09;25.65
38616;BME280;24370;51.986;4.666;2023-09-07T12:19:22;101877.94;;;39.22;24.44
38616;BME280;24370;51.986;4.666;2023-09-07T12:21:47;101874.53;;;39.43;24.59
38616;BME280;24370;51.986;4.666;2023-09-07T12:24:13;101867.50;;;39.49;24.29
38616;BME280;24370;51.986;4.666;2023-09-07T12:26:38;101866.78;;;40.61;24.25
38616;BME280;24370;51.986;4.666;2023-09-07T12:29:04;101875.09;;;39.85;24.58
38616;BME280;24370;51.986;4.666;2023-09-07T12:31:30;101876.41;;;39.11;25.49
38616;BME280;24370;51.986;4.666;2023-09-07T12:33:56;101867.75;;;39.62;24.43
38616;BME280;24370;51.986;4.666;2023-09-07T12:36:22;101865.28;;;39.21;24.70
38616;BME280;24370;51.986;4.666;2023-09-07T12:38:47;101866.97;;;39.77;24.41
38616;BME280;24370;51.986;4.666;2023-09-07T12:41:13;101862.19;;;39.47;25.45
38616;BME280;24370;51.986;4.666;2023-09-07T12:43:38;101856.16;;;39.98;24.49
38616;BME280;24370;51.986;4.666;2023-09-07T12:46:04;101861.41;;;38.76;25.04
38616;BME280;24370;51.986;4.666;2023-09-07T12:48:29;101860.63;;;39.30;24.44